sensor_id;sensor_type;location;lat;lon;timestamp;pressure;altitude;pressure_sealevel;temperature;humidity
52591;BME280;38483;42.620;25.394;2023-03-15T00:01:10;96181.69;;;5.31;56.73
52591;BME280;38483;42.620;25.394;2023-03-15T00:03:41;96190.53;;;5.44;57.01
52591;BME280;38483;42.620;25.394;2023-03-15T00:06:09;96170.78;;;5.46;57.35
52591;BME280;38483;42.620;25.394;2023-03-15T00:08:36;96181.81;;;5.48;57.93
52591;BME280;38483;42.620;25.394;2023-03-15T00:11:03;96180.22;;;5.24;57.94
52591;BME280;38483;42.620;25.394;2023-03-15T00:13:30;96172.53;;;5.46;57.96
52591;BME280;38483;42.620;25.394;2023-03-15T00:15:59;96164.31;;;5.38;57.39
52591;BME280;38483;42.620;25.394;2023-03-15T00:18:28;96175.03;;;5.47;57.70
52591;BME280;38483;42.620;25.394;2023-03-15T00:20:55;96162.13;;;5.49;57.74
52591;BME280;38483;42.620;25.394;2023-03-15T00:23:22;96155.09;;;5.54;57.50
52591;BME280;38483;42.620;25.394;2023-03-15T00:25:50;96153.53;;;5.50;57.25
52591;BME280;38483;42.620;25.394;2023-03-15T00:28:17;96153.19;;;5.37;57.88
52591;BME280;38483;42.620;25.394;2023-03-15T00:30:45;96144.75;;;5.34;58.40
52591;BME280;38483;42.620;25.394;2023-03-15T00:33:14;96142.09;;;5.37;58.46
52591;BME280;38483;42.620;25.394;2023-03-15T00:35:43;96131.88;;;5.35;57.70
52591;BME280;38483;42.620;25.394;2023-03-15T00:38:11;96095.31;;;5.09;59.45
52591;BME280;38483;42.620;25.394;2023-03-15T00:40:41;96115.53;;;5.16;58.98
52591;BME280;38483;42.620;25.394;2023-03-15T00:43:08;96114.53;;;5.20;59.01
52591;BME280;38483;42.620;25.394;2023-03-15T00:45:35;96117.50;;;5.31;58.73
52591;BME280;38483;42.620;25.394;2023-03-15T00:48:03;96113.19;;;5.32;60.03
52591;BME280;38483;42.620;25.394;2023-03-15T00:50:30;96090.94;;;5.32;59.36
52591;BME280;38483;42.620;25.394;2023-03-15T00:52:57;96098.97;;;5.45;58.76
52591;BME280;38483;42.620;25.394;2023-03-15T00:55:23;96097.16;;;5.47;59.56
52591;BME280;38483;42.620;25.394;2023-03-15T00:57:50;96092.66;;;5.32;59.90
52591;BME280;38483;42.620;25.394;2023-03-15T01:00:22;96091.41;;;5.42;59.47
52591;BME280;38483;42.620;25.394;2023-03-15T01:02:51;96089.78;;;5.39;60.70
52591;BME280;38483;42.620;25.394;2023-03-15T01:05:20;96079.59;;;5.38;60.12
52591;BME280;38483;42.620;25.394;2023-03-15T01:07:48;96077.22;;;5.33;59.49
52591;BME280;38483;42.620;25.394;2023-03-15T01:10:15;96078.69;;;5.39;59.88
52591;BME280;38483;42.620;25.394;2023-03-15T01:12:42;96070.63;;;5.26;59.98
52591;BME280;38483;42.620;25.394;2023-03-15T01:15:12;96064.66;;;5.26;60.37
52591;BME280;38483;42.620;25.394;2023-03-15T01:17:40;96056.44;;;5.18;60.03
52591;BME280;38483;42.620;25.394;2023-03-15T01:20:09;96046.09;;;4.99;59.74
52591;BME280;38483;42.620;25.394;2023-03-15T01:22:37;96051.38;;;5.16;60.55
52591;BME280;38483;42.620;25.394;2023-03-15T01:25:06;96055.84;;;5.11;60.00
52591;BME280;38483;42.620;25.394;2023-03-15T01:27:35;96057.72;;;5.08;60.05
52591;BME280;38483;42.620;25.394;2023-03-15T01:30:02;96050.69;;;4.91;60.17
52591;BME280;38483;42.620;25.394;2023-03-15T01:32:29;96016.34;;;4.73;60.18
52591;BME280;38483;42.620;25.394;2023-03-15T01:34:56;96051.06;;;4.82;60.23
52591;BME280;38483;42.620;25.394;2023-03-15T01:37:23;96052.25;;;4.73;61.07
52591;BME280;38483;42.620;25.394;2023-03-15T01:39:52;96029.94;;;4.54;61.59
52591;BME280;38483;42.620;25.394;2023-03-15T01:42:19;96034.13;;;4.56;61.41
52591;BME280;38483;42.620;25.394;2023-03-15T01:44:57;96029.13;;;4.53;61.67
52591;BME280;38483;42.620;25.394;2023-03-15T01:47:29;96026.59;;;4.30;62.05
52591;BME280;38483;42.620;25.394;2023-03-15T01:50:09;96022.56;;;4.23;62.09
52591;BME280;38483;42.620;25.394;2023-03-15T01:52:40;96002.94;;;4.00;62.50
52591;BME280;38483;42.620;25.394;2023-03-15T01:55:18;96031.50;;;4.13;62.52
52591;BME280;38483;42.620;25.394;2023-03-15T01:57:58;96018.91;;;4.30;61.97
52591;BME280;38483;42.620;25.394;2023-03-15T02:00:28;96033.88;;;4.41;61.54
52591;BME280;38483;42.620;25.394;2023-03-15T02:05:37;96033.13;;;4.37;60.98
52591;BME280;38483;42.620;25.394;2023-03-15T02:08:18;96037.47;;;4.35;61.54
52591;BME280;38483;42.620;25.394;2023-03-15T02:10:50;96029.69;;;4.38;60.27
52591;BME280;38483;42.620;25.394;2023-03-15T02:13:20;96027.47;;;4.29;60.84
52591;BME280;38483;42.620;25.394;2023-03-15T02:15:53;96032.72;;;4.03;61.07
52591;BME280;38483;42.620;25.394;2023-03-15T02:18:26;96035.41;;;3.77;62.50
52591;BME280;38483;42.620;25.394;2023-03-15T02:24:34;96035.28;;;3.30;63.07
52591;BME280;38483;42.620;25.394;2023-03-15T02:27:02;96031.94;;;3.28;63.28
52591;BME280;38483;42.620;25.394;2023-03-15T02:29:29;96037.66;;;3.37;63.48
52591;BME280;38483;42.620;25.394;2023-03-15T02:31:57;96048.66;;;3.39;62.14
52591;BME280;38483;42.620;25.394;2023-03-15T02:34:24;96030.38;;;3.24;63.37
52591;BME280;38483;42.620;25.394;2023-03-15T02:36:52;95994.13;;;2.87;64.11
52591;BME280;38483;42.620;25.394;2023-03-15T02:39:20;96037.97;;;3.01;64.12
52591;BME280;38483;42.620;25.394;2023-03-15T02:41:52;96032.19;;;2.96;64.48
52591;BME280;38483;42.620;25.394;2023-03-15T02:44:31;96024.41;;;2.99;63.91
52591;BME280;38483;42.620;25.394;2023-03-15T02:47:05;96022.53;;;3.04;63.47
52591;BME280;38483;42.620;25.394;2023-03-15T02:49:44;96018.94;;;3.10;62.67
52591;BME280;38483;42.620;25.394;2023-03-15T02:52:12;96010.00;;;3.21;62.83
52591;BME280;38483;42.620;25.394;2023-03-15T02:54:40;96014.19;;;3.24;62.11
52591;BME280;38483;42.620;25.394;2023-03-15T02:57:11;96009.72;;;3.30;61.96
52591;BME280;38483;42.620;25.394;2023-03-15T02:59:38;96005.22;;;3.37;62.03
52591;BME280;38483;42.620;25.394;2023-03-15T03:02:05;96009.41;;;3.40;60.92
52591;BME280;38483;42.620;25.394;2023-03-15T03:04:33;95997.63;;;3.36;61.08
52591;BME280;38483;42.620;25.394;2023-03-15T03:07:00;96008.69;;;3.59;60.77
52591;BME280;38483;42.620;25.394;2023-03-15T03:09:35;95986.53;;;3.35;61.91
52591;BME280;38483;42.620;25.394;2023-03-15T03:12:02;95989.31;;;3.29;61.34
52591;BME280;38483;42.620;25.394;2023-03-15T03:14:31;95999.28;;;3.37;62.20
52591;BME280;38483;42.620;25.394;2023-03-15T03:16:58;95991.16;;;3.49;61.10
52591;BME280;38483;42.620;25.394;2023-03-15T03:19:26;95990.28;;;3.50;61.93
52591;BME280;38483;42.620;25.394;2023-03-15T03:21:54;95995.81;;;3.62;61.29
52591;BME280;38483;42.620;25.394;2023-03-15T03:24:22;95999.34;;;3.83;61.35
52591;BME280;38483;42.620;25.394;2023-03-15T03:26:53;95996.53;;;4.12;60.22
52591;BME280;38483;42.620;25.394;2023-03-15T03:29:26;95994.91;;;4.33;59.61
52591;BME280;38483;42.620;25.394;2023-03-15T03:31:55;95986.28;;;4.12;60.30
52591;BME280;38483;42.620;25.394;2023-03-15T03:34:22;95985.88;;;4.23;60.40
52591;BME280;38483;42.620;25.394;2023-03-15T03:36:50;95970.44;;;4.24;60.45
52591;BME280;38483;42.620;25.394;2023-03-15T03:39:26;95979.16;;;4.20;60.98
52591;BME280;38483;42.620;25.394;2023-03-15T03:41:53;95973.81;;;4.03;62.51
52591;BME280;38483;42.620;25.394;2023-03-15T03:44:20;95984.69;;;3.86;63.87
52591;BME280;38483;42.620;25.394;2023-03-15T03:46:48;95984.63;;;3.88;64.36
52591;BME280;38483;42.620;25.394;2023-03-15T03:49:16;95979.63;;;4.08;64.59
52591;BME280;38483;42.620;25.394;2023-03-15T03:51:43;95984.91;;;4.03;63.78
52591;BME280;38483;42.620;25.394;2023-03-15T03:54:10;95996.78;;;4.28;64.12
52591;BME280;38483;42.620;25.394;2023-03-15T03:56:37;95988.03;;;4.33;63.27
52591;BME280;38483;42.620;25.394;2023-03-15T03:59:05;95978.13;;;4.24;63.03
52591;BME280;38483;42.620;25.394;2023-03-15T04:01:44;95977.78;;;4.33;63.13
52591;BME280;38483;42.620;25.394;2023-03-15T04:04:11;95996.94;;;4.01;64.80
52591;BME280;38483;42.620;25.394;2023-03-15T04:06:41;95993.63;;;3.98;63.91
52591;BME280;38483;42.620;25.394;2023-03-15T04:09:14;95984.28;;;3.97;63.67
52591;BME280;38483;42.620;25.394;2023-03-15T04:11:44;95989.44;;;4.19;64.28
52591;BME280;38483;42.620;25.394;2023-03-15T04:14:12;95983.03;;;4.30;63.40
52591;BME280;38483;42.620;25.394;2023-03-15T04:16:41;95981.31;;;4.31;63.52
52591;BME280;38483;42.620;25.394;2023-03-15T04:19:10;95994.56;;;4.19;63.56
52591;BME280;38483;42.620;25.394;2023-03-15T04:21:39;95972.47;;;4.16;64.05
52591;BME280;38483;42.620;25.394;2023-03-15T04:24:45;95992.66;;;4.24;63.60
52591;BME280;38483;42.620;25.394;2023-03-15T04:27:34;95982.59;;;4.19;64.33
52591;BME280;38483;42.620;25.394;2023-03-15T04:30:13;95986.38;;;3.63;66.16
52591;BME280;38483;42.620;25.394;2023-03-15T04:33:18;95998.22;;;3.17;68.26
52591;BME280;38483;42.620;25.394;2023-03-15T04:36:04;95998.22;;;3.42;67.88
52591;BME280;38483;42.620;25.394;2023-03-15T04:38:34;96009.09;;;3.72;67.43
52591;BME280;38483;42.620;25.394;2023-03-15T04:41:31;96001.81;;;3.37;68.49
52591;BME280;38483;42.620;25.394;2023-03-15T04:44:09;95996.41;;;3.46;67.66
52591;BME280;38483;42.620;25.394;2023-03-15T04:46:48;95998.22;;;3.67;67.72
52591;BME280;38483;42.620;25.394;2023-03-15T04:49:26;96003.53;;;3.61;67.98
52591;BME280;38483;42.620;25.394;2023-03-15T04:51:59;95982.94;;;3.64;68.54
52591;BME280;38483;42.620;25.394;2023-03-15T04:54:46;95987.63;;;3.99;67.55
52591;BME280;38483;42.620;25.394;2023-03-15T04:57:39;95989.63;;;4.14;67.24
52591;BME280;38483;42.620;25.394;2023-03-15T05:00:26;95984.75;;;4.08;67.07
52591;BME280;38483;42.620;25.394;2023-03-15T05:03:12;95984.56;;;3.66;68.54
52591;BME280;38483;42.620;25.394;2023-03-15T05:05:57;95946.97;;;3.68;68.64
52591;BME280;38483;42.620;25.394;2023-03-15T05:08:46;95982.94;;;3.64;69.51
52591;BME280;38483;42.620;25.394;2023-03-15T05:11:24;95974.06;;;3.74;69.70
52591;BME280;38483;42.620;25.394;2023-03-15T05:14:17;95960.84;;;3.84;69.03
52591;BME280;38483;42.620;25.394;2023-03-15T05:17:14;95963.19;;;3.90;68.39
52591;BME280;38483;42.620;25.394;2023-03-15T05:19:43;95975.13;;;4.13;67.85
52591;BME280;38483;42.620;25.394;2023-03-15T05:22:29;95978.94;;;4.25;67.38
52591;BME280;38483;42.620;25.394;2023-03-15T05:25:15;95973.81;;;4.25;67.44
52591;BME280;38483;42.620;25.394;2023-03-15T05:28:11;95973.06;;;4.44;66.87
52591;BME280;38483;42.620;25.394;2023-03-15T05:31:13;95970.38;;;4.47;67.05
52591;BME280;38483;42.620;25.394;2023-03-15T05:34:15;95974.13;;;4.60;66.50
52591;BME280;38483;42.620;25.394;2023-03-15T05:36:58;95944.06;;;4.22;66.32
52591;BME280;38483;42.620;25.394;2023-03-15T05:39:30;95953.00;;;4.12;67.08
52591;BME280;38483;42.620;25.394;2023-03-15T05:42:10;95950.78;;;4.46;66.27
52591;BME280;38483;42.620;25.394;2023-03-15T05:45:09;95953.06;;;4.32;67.04
52591;BME280;38483;42.620;25.394;2023-03-15T05:47:59;95937.88;;;4.69;65.55
52591;BME280;38483;42.620;25.394;2023-03-15T05:50:30;95931.59;;;4.76;64.90
52591;BME280;38483;42.620;25.394;2023-03-15T05:53:13;95926.72;;;4.90;63.87
52591;BME280;38483;42.620;25.394;2023-03-15T05:55:59;95956.25;;;5.01;63.10
52591;BME280;38483;42.620;25.394;2023-03-15T05:58:28;95950.97;;;5.24;63.13
52591;BME280;38483;42.620;25.394;2023-03-15T06:01:22;95955.72;;;5.33;62.44
52591;BME280;38483;42.620;25.394;2023-03-15T06:04:15;95949.44;;;5.20;62.25
52591;BME280;38483;42.620;25.394;2023-03-15T06:06:43;95971.56;;;5.42;62.37
52591;BME280;38483;42.620;25.394;2023-03-15T06:09:11;95971.88;;;5.55;61.32
52591;BME280;38483;42.620;25.394;2023-03-15T06:11:38;95964.94;;;5.57;61.03
52591;BME280;38483;42.620;25.394;2023-03-15T06:14:08;95955.69;;;5.53;61.94
52591;BME280;38483;42.620;25.394;2023-03-15T06:16:43;95967.13;;;5.66;60.24
52591;BME280;38483;42.620;25.394;2023-03-15T06:19:10;95986.19;;;5.79;61.28
52591;BME280;38483;42.620;25.394;2023-03-15T06:21:37;95983.72;;;5.77;60.80
52591;BME280;38483;42.620;25.394;2023-03-15T06:24:10;95983.19;;;5.90;60.82
52591;BME280;38483;42.620;25.394;2023-03-15T06:26:38;95989.06;;;6.12;60.14
52591;BME280;38483;42.620;25.394;2023-03-15T06:29:08;95982.13;;;6.14;60.51
52591;BME280;38483;42.620;25.394;2023-03-15T06:31:35;95964.06;;;6.15;60.12
52591;BME280;38483;42.620;25.394;2023-03-15T06:34:06;95973.38;;;6.18;59.63
52591;BME280;38483;42.620;25.394;2023-03-15T06:36:33;95975.84;;;6.19;61.31
52591;BME280;38483;42.620;25.394;2023-03-15T06:39:00;95968.69;;;5.89;62.18
52591;BME280;38483;42.620;25.394;2023-03-15T06:41:28;95977.25;;;5.89;62.56
52591;BME280;38483;42.620;25.394;2023-03-15T06:44:03;95972.88;;;5.91;62.37
52591;BME280;38483;42.620;25.394;2023-03-15T06:46:30;95975.38;;;6.30;62.10
52591;BME280;38483;42.620;25.394;2023-03-15T06:48:57;95970.34;;;6.45;62.20
52591;BME280;38483;42.620;25.394;2023-03-15T06:51:25;95979.28;;;6.55;61.06
52591;BME280;38483;42.620;25.394;2023-03-15T06:53:52;95960.34;;;6.75;61.49
52591;BME280;38483;42.620;25.394;2023-03-15T06:56:21;95957.50;;;6.98;60.05
52591;BME280;38483;42.620;25.394;2023-03-15T06:58:48;95961.13;;;6.94;60.45
52591;BME280;38483;42.620;25.394;2023-03-15T07:01:15;95962.88;;;6.94;60.26
52591;BME280;38483;42.620;25.394;2023-03-15T07:03:42;95966.03;;;6.82;60.99
52591;BME280;38483;42.620;25.394;2023-03-15T07:06:09;95962.94;;;6.92;60.89
52591;BME280;38483;42.620;25.394;2023-03-15T07:08:36;95969.84;;;7.09;60.91
52591;BME280;38483;42.620;25.394;2023-03-15T07:11:03;95960.00;;;7.17;60.39
52591;BME280;38483;42.620;25.394;2023-03-15T07:13:32;95947.44;;;7.11;61.50
52591;BME280;38483;42.620;25.394;2023-03-15T07:15:58;95966.13;;;7.31;60.84
52591;BME280;38483;42.620;25.394;2023-03-15T07:18:26;95965.28;;;7.14;60.69
52591;BME280;38483;42.620;25.394;2023-03-15T07:20:57;95945.66;;;7.28;60.44
52591;BME280;38483;42.620;25.394;2023-03-15T07:23:25;95950.72;;;7.47;60.72
52591;BME280;38483;42.620;25.394;2023-03-15T07:25:53;95954.09;;;7.65;59.68
52591;BME280;38483;42.620;25.394;2023-03-15T07:28:22;95957.72;;;7.61;59.85
52591;BME280;38483;42.620;25.394;2023-03-15T07:30:53;95948.22;;;7.78;60.54
52591;BME280;38483;42.620;25.394;2023-03-15T07:33:21;95941.16;;;7.66;59.94
52591;BME280;38483;42.620;25.394;2023-03-15T07:35:50;95941.03;;;7.85;60.49
52591;BME280;38483;42.620;25.394;2023-03-15T07:38:17;95927.94;;;7.72;59.70
52591;BME280;38483;42.620;25.394;2023-03-15T07:40:47;95932.22;;;8.04;59.65
52591;BME280;38483;42.620;25.394;2023-03-15T07:43:14;95911.91;;;8.14;58.91
52591;BME280;38483;42.620;25.394;2023-03-15T07:45:41;95930.44;;;8.38;58.89
52591;BME280;38483;42.620;25.394;2023-03-15T07:48:08;95929.94;;;8.47;58.24
52591;BME280;38483;42.620;25.394;2023-03-15T07:50:36;95922.25;;;8.61;58.88
52591;BME280;38483;42.620;25.394;2023-03-15T07:53:03;95923.59;;;8.52;58.00
52591;BME280;38483;42.620;25.394;2023-03-15T07:55:32;95926.84;;;8.40;59.13
52591;BME280;38483;42.620;25.394;2023-03-15T07:57:59;95919.44;;;8.50;59.20
52591;BME280;38483;42.620;25.394;2023-03-15T08:00:26;95924.31;;;8.70;58.78
52591;BME280;38483;42.620;25.394;2023-03-15T08:02:54;95909.66;;;8.70;58.97
52591;BME280;38483;42.620;25.394;2023-03-15T08:05:21;95920.63;;;8.74;59.42
52591;BME280;38483;42.620;25.394;2023-03-15T08:07:48;95931.19;;;8.85;59.17
52591;BME280;38483;42.620;25.394;2023-03-15T08:10:15;95932.19;;;9.12;58.27
52591;BME280;38483;42.620;25.394;2023-03-15T08:12:43;95928.53;;;9.30;58.01
52591;BME280;38483;42.620;25.394;2023-03-15T08:15:12;95928.28;;;9.49;57.34
52591;BME280;38483;42.620;25.394;2023-03-15T08:17:40;95904.19;;;9.48;56.91
52591;BME280;38483;42.620;25.394;2023-03-15T08:20:09;95914.91;;;9.42;57.44
52591;BME280;38483;42.620;25.394;2023-03-15T08:22:37;95911.03;;;9.35;57.15
52591;BME280;38483;42.620;25.394;2023-03-15T08:25:05;95897.91;;;9.38;57.19
52591;BME280;38483;42.620;25.394;2023-03-15T08:27:32;95905.78;;;9.07;58.08
52591;BME280;38483;42.620;25.394;2023-03-15T08:29:59;95902.94;;;8.52;60.59
52591;BME280;38483;42.620;25.394;2023-03-15T08:32:28;95891.78;;;9.11;58.72
52591;BME280;38483;42.620;25.394;2023-03-15T08:34:55;95885.50;;;9.01;58.62
52591;BME280;38483;42.620;25.394;2023-03-15T08:37:22;95897.81;;;9.26;57.72
52591;BME280;38483;42.620;25.394;2023-03-15T08:39:49;95882.66;;;8.76;59.56
52591;BME280;38483;42.620;25.394;2023-03-15T08:42:23;95879.19;;;9.21;58.15
52591;BME280;38483;42.620;25.394;2023-03-15T08:44:50;95878.72;;;9.42;57.57
52591;BME280;38483;42.620;25.394;2023-03-15T08:47:17;95869.13;;;9.44;57.72
52591;BME280;38483;42.620;25.394;2023-03-15T08:49:44;95848.84;;;9.66;56.93
52591;BME280;38483;42.620;25.394;2023-03-15T08:52:11;95866.56;;;9.72;56.71
52591;BME280;38483;42.620;25.394;2023-03-15T08:54:38;95857.75;;;9.75;56.80
52591;BME280;38483;42.620;25.394;2023-03-15T08:57:06;95871.31;;;9.93;56.69
52591;BME280;38483;42.620;25.394;2023-03-15T08:59:33;95857.94;;;9.86;56.19
52591;BME280;38483;42.620;25.394;2023-03-15T09:02:00;95862.16;;;9.87;56.14
52591;BME280;38483;42.620;25.394;2023-03-15T09:04:27;95852.31;;;9.79;55.62
52591;BME280;38483;42.620;25.394;2023-03-15T09:06:54;95834.41;;;9.76;56.02
52591;BME280;38483;42.620;25.394;2023-03-15T09:09:21;95837.53;;;9.81;55.82
52591;BME280;38483;42.620;25.394;2023-03-15T09:11:49;95831.53;;;9.95;55.49
52591;BME280;38483;42.620;25.394;2023-03-15T09:14:16;95825.94;;;10.42;54.02
52591;BME280;38483;42.620;25.394;2023-03-15T09:16:43;95813.41;;;10.36;52.67
52591;BME280;38483;42.620;25.394;2023-03-15T09:19:09;95827.47;;;10.71;52.62
52591;BME280;38483;42.620;25.394;2023-03-15T09:21:36;95816.03;;;10.08;52.00
52591;BME280;38483;42.620;25.394;2023-03-15T09:24:04;95820.66;;;10.17;52.50
52591;BME280;38483;42.620;25.394;2023-03-15T09:26:31;95811.63;;;10.63;51.74
52591;BME280;38483;42.620;25.394;2023-03-15T09:28:57;95824.19;;;11.19;51.35
52591;BME280;38483;42.620;25.394;2023-03-15T09:31:24;95812.69;;;11.74;50.36
52591;BME280;38483;42.620;25.394;2023-03-15T09:33:51;95817.81;;;11.99;49.66
52591;BME280;38483;42.620;25.394;2023-03-15T09:36:18;95795.41;;;11.85;49.15
52591;BME280;38483;42.620;25.394;2023-03-15T09:38:46;95793.56;;;11.75;48.89
52591;BME280;38483;42.620;25.394;2023-03-15T09:41:41;95814.53;;;12.08;48.75
52591;BME280;38483;42.620;25.394;2023-03-15T09:47:00;95785.19;;;12.07;47.88
52591;BME280;38483;42.620;25.394;2023-03-15T09:49:37;95793.47;;;12.36;48.26
52591;BME280;38483;42.620;25.394;2023-03-15T09:55:17;95808.34;;;11.11;51.12
52591;BME280;38483;42.620;25.394;2023-03-15T09:57:50;95790.38;;;11.33;50.77
52591;BME280;38483;42.620;25.394;2023-03-15T10:00:40;95792.53;;;11.65;49.67
52591;BME280;38483;42.620;25.394;2023-03-15T10:06:06;95791.81;;;12.11;48.28
52591;BME280;38483;42.620;25.394;2023-03-15T10:08:37;95793.13;;;12.17;47.43
52591;BME280;38483;42.620;25.394;2023-03-15T10:16:27;95790.25;;;12.33;46.93
52591;BME280;38483;42.620;25.394;2023-03-15T10:21:57;95790.63;;;12.39;46.38
52591;BME280;38483;42.620;25.394;2023-03-15T10:27:13;95787.09;;;11.93;48.32
52591;BME280;38483;42.620;25.394;2023-03-15T10:29:41;95781.91;;;12.16;47.76
52591;BME280;38483;42.620;25.394;2023-03-15T10:32:18;95749.22;;;12.14;47.79
52591;BME280;38483;42.620;25.394;2023-03-15T10:34:49;95773.41;;;11.91;48.88
52591;BME280;38483;42.620;25.394;2023-03-15T10:37:18;95763.09;;;12.25;48.04
52591;BME280;38483;42.620;25.394;2023-03-15T10:39:47;95762.25;;;12.60;47.24
52591;BME280;38483;42.620;25.394;2023-03-15T10:42:30;95748.84;;;12.77;46.64
52591;BME280;38483;42.620;25.394;2023-03-15T10:44:58;95749.94;;;12.85;45.93
52591;BME280;38483;42.620;25.394;2023-03-15T10:47:42;95734.09;;;12.43;46.60
52591;BME280;38483;42.620;25.394;2023-03-15T10:50:31;95751.41;;;12.66;47.00
52591;BME280;38483;42.620;25.394;2023-03-15T10:53:00;95738.50;;;12.53;47.16
52591;BME280;38483;42.620;25.394;2023-03-15T10:55:44;95755.34;;;12.71;46.15
52591;BME280;38483;42.620;25.394;2023-03-15T10:58:26;95743.44;;;11.87;48.46
52591;BME280;38483;42.620;25.394;2023-03-15T11:01:02;95735.53;;;12.12;48.22
52591;BME280;38483;42.620;25.394;2023-03-15T11:03:29;95723.38;;;12.36;48.03
52591;BME280;38483;42.620;25.394;2023-03-15T11:05:57;95724.06;;;12.03;47.57
52591;BME280;38483;42.620;25.394;2023-03-15T11:11:03;95726.44;;;12.41;47.35
52591;BME280;38483;42.620;25.394;2023-03-15T11:13:32;95714.75;;;12.12;48.17
52591;BME280;38483;42.620;25.394;2023-03-15T11:18:35;95713.59;;;12.16;48.04
52591;BME280;38483;42.620;25.394;2023-03-15T11:21:10;95716.97;;;12.29;48.37
52591;BME280;38483;42.620;25.394;2023-03-15T11:23:45;95720.47;;;12.52;47.67
52591;BME280;38483;42.620;25.394;2023-03-15T11:29:02;95695.06;;;12.55;47.26
52591;BME280;38483;42.620;25.394;2023-03-15T11:31:30;95710.47;;;12.00;48.59
52591;BME280;38483;42.620;25.394;2023-03-15T11:34:34;95696.78;;;11.98;48.46
52591;BME280;38483;42.620;25.394;2023-03-15T11:40:16;95672.97;;;11.93;49.03
52591;BME280;38483;42.620;25.394;2023-03-15T11:42:58;95698.28;;;12.13;48.47
52591;BME280;38483;42.620;25.394;2023-03-15T11:45:47;95706.00;;;12.25;48.99
52591;BME280;38483;42.620;25.394;2023-03-15T11:51:10;95669.78;;;12.35;47.50
52591;BME280;38483;42.620;25.394;2023-03-15T11:53:47;95696.03;;;12.54;47.17
52591;BME280;38483;42.620;25.394;2023-03-15T11:56:24;95691.31;;;12.59;46.87
52591;BME280;38483;42.620;25.394;2023-03-15T11:59:07;95664.28;;;12.62;46.41
52591;BME280;38483;42.620;25.394;2023-03-15T12:01:41;95684.94;;;12.52;47.21
52591;BME280;38483;42.620;25.394;2023-03-15T12:07:04;95637.69;;;11.90;48.11
52591;BME280;38483;42.620;25.394;2023-03-15T12:12:01;95672.31;;;12.59;47.33
52591;BME280;38483;42.620;25.394;2023-03-15T12:14:33;95677.84;;;12.08;48.66
52591;BME280;38483;42.620;25.394;2023-03-15T12:17:55;95669.09;;;12.44;48.30
52591;BME280;38483;42.620;25.394;2023-03-15T12:20:40;95639.97;;;12.52;47.69
52591;BME280;38483;42.620;25.394;2023-03-15T12:23:20;95667.69;;;12.51;47.29
52591;BME280;38483;42.620;25.394;2023-03-15T12:25:55;95665.84;;;12.64;47.36
52591;BME280;38483;42.620;25.394;2023-03-15T12:28:30;95676.50;;;12.83;47.20
52591;BME280;38483;42.620;25.394;2023-03-15T12:31:01;95669.88;;;12.79;47.41
52591;BME280;38483;42.620;25.394;2023-03-15T12:33:31;95665.38;;;12.70;47.65
52591;BME280;38483;42.620;25.394;2023-03-15T12:36:01;95660.66;;;12.97;47.24
52591;BME280;38483;42.620;25.394;2023-03-15T12:38:37;95649.78;;;12.92;46.51
52591;BME280;38483;42.620;25.394;2023-03-15T12:41:31;95650.13;;;12.99;46.93
52591;BME280;38483;42.620;25.394;2023-03-15T12:44:25;95654.53;;;13.21;46.88
52591;BME280;38483;42.620;25.394;2023-03-15T12:47:04;95670.34;;;12.95;46.89
52591;BME280;38483;42.620;25.394;2023-03-15T12:54:44;95660.41;;;12.56;47.30
52591;BME280;38483;42.620;25.394;2023-03-15T12:57:18;95660.06;;;12.94;47.28
52591;BME280;38483;42.620;25.394;2023-03-15T12:59:53;95662.56;;;13.06;46.87
52591;BME280;38483;42.620;25.394;2023-03-15T13:02:32;95665.16;;;13.18;45.91
52591;BME280;38483;42.620;25.394;2023-03-15T13:08:23;95667.91;;;13.16;45.81
52591;BME280;38483;42.620;25.394;2023-03-15T13:14:04;95657.72;;;13.35;45.73
52591;BME280;38483;42.620;25.394;2023-03-15T13:16:43;95654.91;;;13.16;46.13
52591;BME280;38483;42.620;25.394;2023-03-15T13:27:02;95646.44;;;12.57;47.12
52591;BME280;38483;42.620;25.394;2023-03-15T13:29:32;95647.88;;;12.72;47.07
52591;BME280;38483;42.620;25.394;2023-03-15T13:34:28;95643.63;;;12.82;46.70
52591;BME280;38483;42.620;25.394;2023-03-15T13:36:58;95643.28;;;12.76;47.36
52591;BME280;38483;42.620;25.394;2023-03-15T13:39:30;95638.91;;;12.65;47.20
52591;BME280;38483;42.620;25.394;2023-03-15T13:42:05;95648.84;;;12.93;47.28
52591;BME280;38483;42.620;25.394;2023-03-15T13:44:33;95650.72;;;13.02;46.18
52591;BME280;38483;42.620;25.394;2023-03-15T13:47:00;95654.03;;;12.93;45.96
52591;BME280;38483;42.620;25.394;2023-03-15T13:49:31;95641.06;;;13.04;45.85
52591;BME280;38483;42.620;25.394;2023-03-15T13:52:03;95653.34;;;13.25;46.11
52591;BME280;38483;42.620;25.394;2023-03-15T13:54:38;95659.00;;;12.85;46.45
52591;BME280;38483;42.620;25.394;2023-03-15T13:57:11;95648.81;;;12.60;46.72
52591;BME280;38483;42.620;25.394;2023-03-15T13:59:52;95650.97;;;12.77;46.51
52591;BME280;38483;42.620;25.394;2023-03-15T14:02:22;95656.16;;;12.99;46.10
52591;BME280;38483;42.620;25.394;2023-03-15T14:04:57;95648.97;;;13.03;45.91
52591;BME280;38483;42.620;25.394;2023-03-15T14:07:39;95644.13;;;12.76;46.26
52591;BME280;38483;42.620;25.394;2023-03-15T14:10:54;95645.06;;;12.64;47.41
52591;BME280;38483;42.620;25.394;2023-03-15T14:12:58;95648.34;;;12.55;46.29
52591;BME280;38483;42.620;25.394;2023-03-15T14:15:41;95649.28;;;12.54;46.24
52591;BME280;38483;42.620;25.394;2023-03-15T14:20:40;95640.44;;;12.68;46.41
52591;BME280;38483;42.620;25.394;2023-03-15T14:23:11;95648.34;;;12.66;46.16
52591;BME280;38483;42.620;25.394;2023-03-15T14:25:38;95650.75;;;12.69;46.49
52591;BME280;38483;42.620;25.394;2023-03-15T14:28:11;95623.88;;;12.36;46.49
52591;BME280;38483;42.620;25.394;2023-03-15T14:30:40;95648.34;;;12.55;46.93
52591;BME280;38483;42.620;25.394;2023-03-15T14:33:24;95647.66;;;12.75;45.83
52591;BME280;38483;42.620;25.394;2023-03-15T14:35:56;95649.19;;;12.89;45.82